createdAt,value
2022-11-07T04:02:02.040Z,4.75
2022-11-07T04:04:29.299Z,4.10
2022-11-07T04:06:56.445Z,5.60
2022-11-07T04:09:23.696Z,5.50
2022-11-07T04:12:29.451Z,4.80
2022-11-07T04:15:15.059Z,5.72
2022-11-07T04:17:42.189Z,3.08
2022-11-07T04:20:09.825Z,3.78
2022-11-07T04:22:37.039Z,5.57
2022-11-07T04:25:04.845Z,4.80
2022-11-07T04:27:44.239Z,4.50
2022-11-07T04:30:20.398Z,4.70
2022-11-07T04:32:49.085Z,5.13
2022-11-07T04:35:16.893Z,7.68
2022-11-07T04:37:44.324Z,4.88
2022-11-07T04:40:12.090Z,6.55
2022-11-07T04:42:40.032Z,4.60
2022-11-07T04:45:08.215Z,4.50
2022-11-07T04:47:40.267Z,4.33
2022-11-07T04:50:10.609Z,4.47
2022-11-07T04:52:37.969Z,4.50
2022-11-07T04:55:07.243Z,4.20
2022-11-07T04:57:34.485Z,3.20
2022-11-07T05:00:02.516Z,4.28
2022-11-07T05:02:29.731Z,4.82
2022-11-07T05:04:56.839Z,5.07
2022-11-07T05:07:23.964Z,5.80
2022-11-07T05:09:51.175Z,4.43
2022-11-07T05:12:18.378Z,4.47
2022-11-07T05:14:45.728Z,5.13
2022-11-07T05:17:16.582Z,4.47
2022-11-07T05:19:43.805Z,5.27
2022-11-07T05:22:30.285Z,5.37
2022-11-07T05:24:57.540Z,4.35
2022-11-07T05:27:25.280Z,5.30
2022-11-07T05:29:52.811Z,4.50
2022-11-07T05:32:20.013Z,5.15
2022-11-07T05:34:47.178Z,6.97
2022-11-07T05:37:14.343Z,9.13
2022-11-07T05:39:41.473Z,6.38
2022-11-07T05:42:08.657Z,6.03
2022-11-07T05:44:35.903Z,4.38
2022-11-07T05:47:03.049Z,7.38
2022-11-07T05:49:30.221Z,6.32
2022-11-07T05:51:57.782Z,6.03
2022-11-07T05:54:27.887Z,6.20
2022-11-07T05:56:58.597Z,4.57
2022-11-07T05:59:25.909Z,7.93
2022-11-07T06:01:53.870Z,9.13
2022-11-07T06:04:21.194Z,7.97
2022-11-07T06:06:48.387Z,6.80
2022-11-07T06:09:15.611Z,4.53
2022-11-07T06:11:42.823Z,7.80
2022-11-07T06:14:10.113Z,7.55
2022-11-07T06:16:37.334Z,7.20
2022-11-07T06:19:04.766Z,9.20
2022-11-07T06:21:32.248Z,3.87
2022-11-07T06:23:59.491Z,8.80
2022-11-07T06:26:26.953Z,10.10
2022-11-07T06:28:54.111Z,4.50
2022-11-07T06:31:21.977Z,6.13
2022-11-07T06:33:52.323Z,8.30
2022-11-07T06:36:19.655Z,10.43
2022-11-07T06:38:52.769Z,7.57
2022-11-07T06:41:19.923Z,8.50
2022-11-07T06:43:47.247Z,8.13
2022-11-07T06:46:14.530Z,7.37
2022-11-07T06:48:41.740Z,5.23
2022-11-07T06:51:10.093Z,8.60
2022-11-07T06:53:38.515Z,12.17
2022-11-07T06:56:07.788Z,8.63
2022-11-07T06:58:35.081Z,6.87
2022-11-07T07:01:08.516Z,13.18
2022-11-07T07:03:35.937Z,11.73
2022-11-07T07:06:05.780Z,11.83
2022-11-07T07:08:33.911Z,12.60
2022-11-07T07:11:05.669Z,8.47
2022-11-07T07:13:33.187Z,10.50
2022-11-07T07:16:00.430Z,9.50
2022-11-07T07:18:28.173Z,8.27
2022-11-07T07:21:07.188Z,8.47
2022-11-07T07:23:34.972Z,11.03
2022-11-07T07:26:03.099Z,7.00
2022-11-07T07:28:30.366Z,9.07
2022-11-07T07:31:15.606Z,6.60
2022-11-07T07:33:43.567Z,10.02
2022-11-07T07:36:15.284Z,7.37
2022-11-07T07:38:45.203Z,7.78
2022-11-07T07:41:12.432Z,4.20
2022-11-07T07:43:39.634Z,14.97
2022-11-07T07:46:08.553Z,9.07
2022-11-07T07:48:35.706Z,8.60
2022-11-07T07:51:02.964Z,8.82
2022-11-07T07:53:30.285Z,11.00
2022-11-07T07:56:02.682Z,7.63
2022-11-07T07:58:29.922Z,3.85
2022-11-07T08:01:00.028Z,4.63
2022-11-07T08:03:32.089Z,6.25
2022-11-07T08:06:07.467Z,5.57
2022-11-07T08:08:38.101Z,4.68
2022-11-07T08:11:08.260Z,7.97
2022-11-07T08:13:36.056Z,10.93
2022-11-07T08:16:07.747Z,6.32
2022-11-07T08:18:36.667Z,8.77
2022-11-07T08:21:03.951Z,4.30
2022-11-07T08:23:31.507Z,7.00
2022-11-07T08:26:00.127Z,4.00
2022-11-07T08:28:29.570Z,5.18
2022-11-07T08:31:01.358Z,5.07
2022-11-07T08:33:28.972Z,4.90
2022-11-07T08:35:58.900Z,5.50
2022-11-07T08:38:26.730Z,4.65
2022-11-07T08:40:54.223Z,5.28
2022-11-07T08:43:21.791Z,4.38
2022-11-07T08:45:50.042Z,5.00
2022-11-07T08:48:17.809Z,8.02
2022-11-07T08:50:45.366Z,6.82
2022-11-07T08:53:12.582Z,4.75
2022-11-07T08:55:39.697Z,5.07
2022-11-07T08:58:08.094Z,4.82
2022-11-07T09:00:36.340Z,6.85
2022-11-07T09:03:31.291Z,4.57
2022-11-07T09:05:53.161Z,4.93
2022-11-07T09:08:20.436Z,4.07
2022-11-07T09:10:47.672Z,5.65
2022-11-07T09:13:15.367Z,3.55
2022-11-07T09:15:47.697Z,4.38
2022-11-07T09:18:16.669Z,3.10
2022-11-07T09:20:43.835Z,6.43
2022-11-07T09:23:11.033Z,5.40
2022-11-07T09:25:38.154Z,10.20
2022-11-07T09:28:05.765Z,3.55
2022-11-07T09:30:33.168Z,5.25
2022-11-07T09:33:00.568Z,4.75
2022-11-07T09:35:28.090Z,2.40
2022-11-07T09:37:55.265Z,5.30
2022-11-07T09:40:27.481Z,4.43
2022-11-07T09:43:18.586Z,3.20
2022-11-07T09:46:12.003Z,2.20
2022-11-07T09:48:45.003Z,3.33
2022-11-07T09:51:35.708Z,3.83
2022-11-07T09:54:13.826Z,3.10
2022-11-07T09:56:43.671Z,6.50
2022-11-07T09:59:27.674Z,4.28
2022-11-07T10:01:54.905Z,7.15
2022-11-07T10:04:26.263Z,4.07
2022-11-07T10:06:56.584Z,2.25
2022-11-07T10:09:55.815Z,3.88
2022-11-07T10:12:44.525Z,4.72
2022-11-07T10:15:27.703Z,6.78
2022-11-07T10:18:19.255Z,2.30
2022-11-07T10:21:31.185Z,2.25
2022-11-07T10:24:03.112Z,1.95
2022-11-07T10:26:31.656Z,2.00
2022-11-07T10:29:20.063Z,2.10
2022-11-07T10:32:09.535Z,2.03
2022-11-07T10:34:42.398Z,2.05
2022-11-07T10:37:09.810Z,2.25
2022-11-07T10:39:36.960Z,1.80
2022-11-07T10:42:15.290Z,2.20
2022-11-07T10:44:43.768Z,2.20
2022-11-07T10:47:18.051Z,2.10
2022-11-07T10:49:59.942Z,1.92
2022-11-07T10:52:28.466Z,2.08
2022-11-07T10:55:13.796Z,2.30
2022-11-07T10:57:41.215Z,1.85
2022-11-07T11:00:28.912Z,2.20
2022-11-07T11:02:57.369Z,2.30
2022-11-07T11:05:46.789Z,2.03
2022-11-07T11:08:22.307Z,3.42
2022-11-07T11:10:50.485Z,2.20
2022-11-07T11:13:34.244Z,2.00
2022-11-07T11:16:26.914Z,1.83
2022-11-07T11:18:59.615Z,2.10
2022-11-07T11:21:37.796Z,1.98
2022-11-07T11:24:13.687Z,2.00
2022-11-07T11:26:44.206Z,2.35
2022-11-07T11:29:20.719Z,3.33
2022-11-07T11:31:51.643Z,1.92
2022-11-07T11:34:18.747Z,2.10
2022-11-07T11:36:53.419Z,2.08
2022-11-07T11:39:35.495Z,1.90
2022-11-07T11:42:05.004Z,2.05
2022-11-07T11:44:44.143Z,1.77
2022-11-07T11:47:11.305Z,1.95
2022-11-07T11:49:52.357Z,1.90
2022-11-07T11:52:25.828Z,2.17
2022-11-07T11:54:56.198Z,1.90
2022-11-07T11:57:36.224Z,2.00
2022-11-07T12:00:22.645Z,1.85
2022-11-07T12:03:09.601Z,1.80
2022-11-07T12:06:06.143Z,1.92
2022-11-07T12:09:17.127Z,2.10
2022-11-07T12:12:01.432Z,2.03
2022-11-07T12:14:57.580Z,2.25
2022-11-07T12:17:43.609Z,2.20
2022-11-07T12:20:29.110Z,1.85
2022-11-07T12:23:18.007Z,2.03
2022-11-07T12:25:58.591Z,2.00
2022-11-07T12:28:37.189Z,1.98
2022-11-07T12:31:13.848Z,2.47
2022-11-07T12:33:56.252Z,2.00
2022-11-07T12:36:23.462Z,2.08
2022-11-07T12:39:02.735Z,2.00
2022-11-07T12:41:46.570Z,2.00
2022-11-07T12:44:16.551Z,2.13
2022-11-07T12:46:49.598Z,4.78
2022-11-07T12:49:19.460Z,1.83
2022-11-07T12:52:01.979Z,1.85
2022-11-07T12:54:38.041Z,1.92
2022-11-07T12:57:15.801Z,1.90
2022-11-07T12:59:49.225Z,2.00
2022-11-07T13:02:37.882Z,2.17
2022-11-07T13:05:23.748Z,2.08
2022-11-07T13:07:57.227Z,1.88
2022-11-07T13:10:40.778Z,2.60
2022-11-07T13:13:54.063Z,2.22
2022-11-07T13:16:26.960Z,1.70
2022-11-07T13:18:55.981Z,1.80
2022-11-07T13:21:23.277Z,2.00
2022-11-07T13:23:50.482Z,2.13
2022-11-07T13:26:46.565Z,1.70
2022-11-07T13:29:34.936Z,1.63
2022-11-07T13:32:16.374Z,1.80
2022-11-07T13:34:59.019Z,1.77
2022-11-07T13:37:48.102Z,1.95
2022-11-07T13:40:29.163Z,1.80
2022-11-07T13:43:01.130Z,2.03
2022-11-07T13:45:40.757Z,2.25
2022-11-07T13:48:16.644Z,1.90
2022-11-07T13:51:18.055Z,2.53
2022-11-07T13:53:57.161Z,2.40
2022-11-07T13:56:27.343Z,2.38
2022-11-07T13:58:55.839Z,2.22
2022-11-07T14:01:23.108Z,2.17
2022-11-07T14:03:50.435Z,2.30
2022-11-07T14:06:17.966Z,2.38
2022-11-07T14:08:47.333Z,2.00
2022-11-07T14:11:23.204Z,2.22
2022-11-07T14:13:53.154Z,2.20
2022-11-07T14:16:26.301Z,2.17
2022-11-07T14:18:59.015Z,1.83
2022-11-07T14:21:29.910Z,1.90
2022-11-07T14:23:58.179Z,2.08
2022-11-07T14:26:28.055Z,2.00
2022-11-07T14:28:56.851Z,2.05
2022-11-07T14:31:32.380Z,2.05
2022-11-07T14:34:05.211Z,1.90
2022-11-07T14:36:32.319Z,1.88
2022-11-07T14:39:11.266Z,1.90
2022-11-07T14:41:43.943Z,1.90
2022-11-07T14:44:28.458Z,1.73
2022-11-07T14:46:59.643Z,1.70
2022-11-07T14:49:33.524Z,1.80
2022-11-07T14:52:00.952Z,1.85
2022-11-07T14:54:36.714Z,1.77
2022-11-07T14:57:04.498Z,1.80
2022-11-07T14:59:35.337Z,1.90
2022-11-07T15:02:30.502Z,2.20
2022-11-07T15:05:07.990Z,1.83
2022-11-07T15:07:47.446Z,1.80
2022-11-07T15:10:25.298Z,1.80
2022-11-07T15:12:56.101Z,2.00
2022-11-07T15:15:24.705Z,2.80
2022-11-07T15:17:55.086Z,2.10
2022-11-07T15:20:32.748Z,4.05
2022-11-07T15:23:04.082Z,2.15
2022-11-07T15:25:44.532Z,2.83
2022-11-07T15:28:44.070Z,2.40
2022-11-07T15:31:26.002Z,2.00
2022-11-07T15:33:55.132Z,2.30
2022-11-07T15:36:23.015Z,2.00
2022-11-07T15:38:51.743Z,2.28
2022-11-07T15:41:19.613Z,2.17
2022-11-07T15:43:46.761Z,2.40
2022-11-07T15:46:19.816Z,2.20
2022-11-07T15:48:47.331Z,2.05
2022-11-07T15:51:14.658Z,2.30
2022-11-07T15:53:41.889Z,2.03
2022-11-07T15:56:14.797Z,2.10
2022-11-07T15:58:42.279Z,2.80
2022-11-07T16:01:10.054Z,2.10
2022-11-07T16:03:37.412Z,2.45
2022-11-07T16:06:21.196Z,2.17
2022-11-07T16:08:48.303Z,2.50
2022-11-07T16:11:15.502Z,2.38
2022-11-07T16:13:42.680Z,3.58
2022-11-07T16:16:18.220Z,3.20
2022-11-07T16:18:46.722Z,3.35
2022-11-07T16:21:13.899Z,3.30
2022-11-07T16:23:42.397Z,3.05
2022-11-07T16:26:12.953Z,2.67
2022-11-07T16:28:40.946Z,2.72
2022-11-07T16:31:08.107Z,2.60
2022-11-07T16:33:35.215Z,2.60
2022-11-07T16:36:14.786Z,2.60
2022-11-07T16:38:41.889Z,3.20
2022-11-07T16:41:11.613Z,4.22
2022-11-07T16:43:39.053Z,4.72
2022-11-07T16:46:13.516Z,5.20
2022-11-07T16:48:41.794Z,5.68
2022-11-07T16:51:15.070Z,6.60
2022-11-07T16:53:43.552Z,9.80
2022-11-07T16:56:23.904Z,9.98
2022-11-07T16:58:52.897Z,12.00
2022-11-07T17:01:21.412Z,10.68
2022-11-07T17:03:48.830Z,11.93
2022-11-07T17:06:46.198Z,10.63
2022-11-07T17:09:24.709Z,10.95
2022-11-07T17:11:51.826Z,9.77
2022-11-07T17:14:19.004Z,12.55
2022-11-07T17:16:47.790Z,11.70
2022-11-07T17:19:15.503Z,12.00
2022-11-07T17:21:46.080Z,10.63
2022-11-07T17:24:13.747Z,12.82
2022-11-07T17:26:41.081Z,6.82
2022-11-07T17:29:12.313Z,7.28
2022-11-07T17:31:40.235Z,7.78
2022-11-07T17:34:07.488Z,8.55
2022-11-07T17:36:46.413Z,14.00
2022-11-07T17:39:19.426Z,15.25
2022-11-07T17:41:48.524Z,15.85
2022-11-07T17:44:17.043Z,17.45
2022-11-07T17:46:48.982Z,19.20
2022-11-07T17:49:18.540Z,16.85
2022-11-07T17:51:45.766Z,15.02
2022-11-07T17:54:14.928Z,15.18
2022-11-07T17:56:42.468Z,15.93
2022-11-07T17:59:14.780Z,11.47
2022-11-07T18:01:42.922Z,11.30
2022-11-07T18:04:12.330Z,10.40
2022-11-07T18:06:41.846Z,12.20
2022-11-07T18:09:13.820Z,13.60
2022-11-07T18:11:41.418Z,18.80
2022-11-07T18:14:12.000Z,14.02
2022-11-07T18:16:39.402Z,15.63
2022-11-07T18:19:06.746Z,11.13
2022-11-07T18:21:34.014Z,7.25
2022-11-07T18:24:02.045Z,6.65
2022-11-07T18:26:30.998Z,6.13
2022-11-07T18:29:03.602Z,6.07
2022-11-07T18:31:31.222Z,10.90
2022-11-07T18:34:00.655Z,10.48
2022-11-07T18:36:30.638Z,10.85
2022-11-07T18:39:28.198Z,10.60
2022-11-07T18:41:55.586Z,11.57
2022-11-07T18:44:22.739Z,15.05
2022-11-07T18:46:50.341Z,17.15
2022-11-07T18:49:19.494Z,13.25
2022-11-07T18:51:46.801Z,11.93
2022-11-07T18:54:14.379Z,12.17
2022-11-07T18:56:42.996Z,12.90
2022-11-07T18:59:10.674Z,13.47
2022-11-07T19:01:38.351Z,11.52
2022-11-07T19:04:06.712Z,16.10
2022-11-07T19:06:34.225Z,14.55
2022-11-07T19:09:01.465Z,12.32
2022-11-07T19:11:30.690Z,16.73
2022-11-07T19:14:01.148Z,12.98
2022-11-07T19:16:28.667Z,12.73
2022-11-07T19:18:55.822Z,10.13
2022-11-07T19:21:23.523Z,10.85
2022-11-07T19:23:51.318Z,10.85
2022-11-07T19:26:21.935Z,11.93
2022-11-07T19:28:49.222Z,9.83
2022-11-07T19:31:17.205Z,10.20
2022-11-07T19:33:44.728Z,10.83
2022-11-07T19:36:18.068Z,11.57
2022-11-07T19:38:45.942Z,14.43
2022-11-07T19:41:15.011Z,14.50
2022-11-07T19:43:45.314Z,13.17
2022-11-07T19:46:15.976Z,11.07
2022-11-07T19:48:44.050Z,13.07
2022-11-07T19:51:20.880Z,10.95
2022-11-07T19:53:55.568Z,14.97
2022-11-07T19:56:24.574Z,9.57
2022-11-07T19:58:51.852Z,10.07
2022-11-07T20:01:22.568Z,10.23
2022-11-07T20:03:51.943Z,8.73
2022-11-07T20:06:22.902Z,9.03
2022-11-07T20:08:50.705Z,9.77
2022-11-07T20:11:23.330Z,9.90
2022-11-07T20:13:51.057Z,11.17
2022-11-07T20:16:18.254Z,13.33
2022-11-07T20:18:45.962Z,11.43
2022-11-07T20:21:16.988Z,12.83
2022-11-07T20:23:45.636Z,15.13
2022-11-07T20:26:15.676Z,14.27
2022-11-07T20:28:43.200Z,13.70
2022-11-07T20:31:19.547Z,11.00
2022-11-07T20:33:47.137Z,10.57
2022-11-07T20:36:15.735Z,14.10
2022-11-07T20:38:43.895Z,13.07
2022-11-07T20:41:12.504Z,14.20
2022-11-07T20:43:40.408Z,13.97
2022-11-07T20:46:10.977Z,11.50
2022-11-07T20:48:39.123Z,12.10
2022-11-07T20:51:14.248Z,10.23
2022-11-07T20:53:46.797Z,9.20
2022-11-07T20:56:17.789Z,8.83
2022-11-07T20:58:45.371Z,13.13
2022-11-07T21:01:19.221Z,9.67
2022-11-07T21:03:47.106Z,9.63
2022-11-07T21:06:14.389Z,8.07
2022-11-07T21:08:46.841Z,8.97
2022-11-07T21:11:15.158Z,10.13
2022-11-07T21:13:46.604Z,9.63
2022-11-07T21:16:19.480Z,9.07
2022-11-07T21:18:46.863Z,8.53
2022-11-07T21:21:20.309Z,8.30
2022-11-07T21:23:48.973Z,8.97
2022-11-07T21:26:27.803Z,9.30
2022-11-07T21:28:55.951Z,7.80
2022-11-07T21:31:27.130Z,8.77
2022-11-07T21:33:55.793Z,8.90
2022-11-07T21:36:28.637Z,10.13
2022-11-07T21:38:57.602Z,8.87
2022-11-07T21:41:24.775Z,8.80
2022-11-07T21:43:52.053Z,8.20
2022-11-07T21:46:25.507Z,9.20
2022-11-07T21:48:53.097Z,8.60
2022-11-07T21:51:31.946Z,9.50
2022-11-07T21:54:00.239Z,9.27
2022-11-07T21:56:32.875Z,10.50
2022-11-07T21:59:02.276Z,10.70
